Time;durP1;ratioP1;P1;durP2;ratioP2;P2;SDS_P1;SDS_P2;PMS_P1;PMS_P2;Temp;Humidity;BMP_temperature;BMP_pressure;BME280_temperature;BME280_humidity;BME280_pressure;Samples;Min_cycle;Max_cycle;Signal;HPM_P1;HPM_P2
2023/11/27 00:01:41;;;;;;;9.85;5.13;;;;;;;-2.94;73.63;97199.63;6145239;23;20037;-88
2023/11/27 00:04:13;;;;;;;11.97;4.30;;;;;;;-2.49;73.09;97280.59;6132277;23;20040;-88
2023/11/27 00:06:39;;;;;;;13.57;5.72;;;;;;;-2.84;73.55;97229.78;6178363;23;20253;-90
2023/11/27 00:09:06;;;;;;;8.55;4.30;;;;;;;-2.34;73.17;97296.56;6194505;23;20039;-90
2023/11/27 00:11:33;;;;;;;16.25;6.43;;;;;;;-2.44;73.33;97264.53;6170098;23;20462;-88
2023/11/27 00:14:06;;;;;;;6.45;3.38;;;;;;;-2.54;73.48;97240.53;6190481;23;20056;-91
2023/11/27 00:16:32;;;;;;;7.57;4.15;;;;;;;-2.72;73.72;97221.38;6192229;23;20079;-90
2023/11/27 00:18:58;;;;;;;9.82;4.30;;;;;;;-2.61;73.62;97209.56;6166795;23;20021;-89
2023/11/27 00:21:34;;;;;;;8.43;3.97;;;;;;;-3.09;73.30;97149.75;6143196;23;20090;-88
2023/11/27 00:24:00;;;;;;;8.20;4.50;;;;;;;-2.47;73.41;97247.16;6142824;23;20052;-88
2023/11/27 00:27:04;;;;;;;9.45;4.93;;;;;;;-2.57;74.70;97222.38;6163894;23;20064;-91
2023/11/27 00:29:30;;;;;;;13.05;5.35;;;;;;;-3.10;73.94;97113.41;6163182;23;20018;-90
2023/11/27 00:32:26;;;;;;;9.57;5.15;;;;;;;-2.51;74.26;97194.50;6115151;23;20017;-90
2023/11/27 00:34:52;;;;;;;11.50;5.43;;;;;;;-2.70;73.68;97160.41;6144811;23;20049;-89
2023/11/27 00:37:43;;;;;;;8.60;4.47;;;;;;;-2.63;73.90;97187.63;6164614;23;20029;-88
2023/11/27 00:40:10;;;;;;;15.52;6.53;;;;;;;-2.90;74.33;97133.84;6136195;23;20013;-91
2023/11/27 00:42:36;;;;;;;7.80;4.38;;;;;;;-2.94;74.65;97125.59;6135211;23;20053;-91
2023/11/27 00:45:02;;;;;;;9.10;4.13;;;;;;;-3.04;74.67;97085.59;6135531;23;20097;-92
2023/11/27 00:47:29;;;;;;;13.57;5.63;;;;;;;-2.86;75.13;97103.59;6109823;23;20049;-91
2023/11/27 00:50:20;;;;;;;8.18;4.10;;;;;;;-3.29;75.27;97049.16;6110948;23;20054;-91
2023/11/27 00:52:46;;;;;;;11.68;5.95;;;;;;;-3.13;75.62;97066.69;6135401;23;20033;-89
2023/11/27 00:55:12;;;;;;;11.60;5.45;;;;;;;-2.89;74.90;97104.16;6136635;23;20017;-89
2023/11/27 00:57:38;;;;;;;13.43;5.75;;;;;;;-3.00;74.88;97081.28;6086167;23;20090;-86
2023/11/27 01:00:12;;;;;;;10.82;5.18;;;;;;;-2.78;74.45;97099.53;6115919;23;20028;-87
2023/11/27 01:02:39;;;;;;;13.38;5.90;;;;;;;-2.92;74.48;97069.16;6140926;23;20013;-90
2023/11/27 01:05:10;;;;;;;10.95;4.80;;;;;;;-3.23;73.88;97005.31;6170292;23;20021;-91
2023/11/27 01:07:36;;;;;;;7.70;3.45;;;;;;;-2.79;74.16;97051.69;6143802;23;20021;-90
2023/11/27 01:10:02;;;;;;;11.82;5.38;;;;;;;-2.81;74.43;97037.78;6168839;23;20017;-88
2023/11/27 01:12:38;;;;;;;9.63;4.25;;;;;;;-2.84;74.31;97023.13;6227395;23;20046;-87
2023/11/27 01:15:08;;;;;;;8.57;4.40;;;;;;;-2.80;74.39;97018.81;6253559;23;20020;-89
2023/11/27 01:17:34;;;;;;;9.63;3.40;;;;;;;-2.65;74.19;97033.88;6227686;23;20019;-90
2023/11/27 01:20:09;;;;;;;8.77;4.35;;;;;;;-2.63;73.74;97008.47;6254710;23;20090;-92
2023/11/27 01:22:36;;;;;;;11.00;5.38;;;;;;;-2.83;73.44;96976.59;6228969;23;20019;-89
2023/11/27 01:25:10;;;;;;;11.27;4.93;;;;;;;-2.52;73.24;97003.78;6228368;23;20454;-91
2023/11/27 01:27:36;;;;;;;10.43;4.72;;;;;;;-2.52;72.92;96976.25;6255988;23;20027;-89
2023/11/27 01:30:23;;;;;;;5.88;3.53;;;;;;;-2.91;73.09;96907.75;6211666;23;20024;-92
2023/11/27 01:33:50;;;;;;;10.27;4.25;;;;;;;-2.24;72.65;97012.06;6229417;23;20110;-91
2023/11/27 01:36:30;;;;;;;42.38;5.82;;;;;;;-2.50;73.00;96977.56;6103944;23;20022;-88
2023/11/27 01:38:59;;;;;;;19.80;5.65;;;;;;;-2.39;73.20;96972.88;6079877;23;20082;-92
2023/11/27 01:41:25;;;;;;;10.80;4.68;;;;;;;-2.50;73.51;96916.06;6078002;23;20018;-91
2023/11/27 01:43:51;;;;;;;9.30;4.40;;;;;;;-2.40;73.51;96923.16;6102319;23;20082;-89
2023/11/27 01:46:27;;;;;;;9.55;4.70;;;;;;;-2.62;72.91;96907.66;6078706;23;20022;-91
2023/11/27 01:48:55;;;;;;;11.48;6.05;;;;;;;-2.16;72.79;96966.69;6103131;23;20018;-91
2023/11/27 01:51:29;;;;;;;8.00;4.13;;;;;;;-2.45;72.60;96925.88;6103720;23;20028;-91
2023/11/27 01:53:58;;;;;;;13.73;5.28;;;;;;;-2.43;72.52;96875.56;6103093;23;20094;-90
2023/11/27 01:56:26;;;;;;;5.13;3.08;;;;;;;-2.66;72.92;96829.88;6102339;23;20042;-90
2023/11/27 01:59:14;;;;;;;8.55;4.03;;;;;;;-2.02;73.30;96926.66;6079996;23;20015;-90
2023/11/27 02:01:41;;;;;;;12.82;6.10;;;;;;;-2.21;72.81;96885.72;6103505;23;20018;-88
2023/11/27 02:04:21;;;;;;;10.10;3.63;;;;;;;-2.21;72.31;96813.47;6055589;23;20021;-90
2023/11/27 02:06:47;;;;;;;11.35;5.03;;;;;;;-1.96;72.32;96815.72;6079089;23;20380;-91
2023/11/27 02:09:30;;;;;;;9.88;5.00;;;;;;;-2.06;72.25;96809.75;6103191;23;20025;-89
2023/11/27 02:11:56;;;;;;;8.63;4.60;;;;;;;-1.68;71.93;96854.09;6079668;23;20018;-91
2023/11/27 02:15:15;;;;;;;10.95;4.82;;;;;;;-1.42;71.57;96916.06;6196562;23;20042;-90
2023/11/27 02:17:44;;;;;;;12.02;5.00;;;;;;;-1.94;71.53;96831.50;6204425;23;20027;-91
2023/11/27 02:20:17;;;;;;;11.27;4.47;;;;;;;-1.55;71.71;96870.50;6202357;23;20044;-90
2023/11/27 02:24:03;;;;;;;13.20;4.47;;;;;;;-1.28;72.36;96870.53;6190284;23;20016;-90
2023/11/27 02:26:49;;;;;;;12.05;5.15;;;;;;;-1.20;72.23;96824.25;6229142;23;20027;-89
2023/11/27 02:29:28;;;;;;;10.35;4.43;;;;;;;-1.30;72.90;96800.34;6086093;23;20050;-92
2023/11/27 02:31:54;;;;;;;13.70;4.70;;;;;;;-1.61;73.24;96773.34;6108405;23;20041;-91
2023/11/27 02:34:20;;;;;;;15.18;5.22;;;;;;;-1.32;73.67;96796.41;6083517;23;20043;-89
2023/11/27 02:37:11;;;;;;;11.77;5.32;;;;;;;-0.91;72.73;96804.41;6107386;23;20010;-92
2023/11/27 02:39:40;;;;;;;7.75;4.88;;;;;;;-1.21;73.11;96765.63;6132674;23;20024;-91
2023/11/27 02:42:09;;;;;;;6.68;3.63;;;;;;;-1.01;73.03;96772.44;6107299;23;20053;-92
2023/11/27 02:44:35;;;;;;;7.65;4.43;;;;;;;-1.02;73.09;96744.84;6106809;23;20492;-92
2023/11/27 02:48:01;;;;;;;14.30;5.03;;;;;;;-0.44;72.55;96764.72;6107467;23;20014;-91
2023/11/27 02:50:55;;;;;;;5.18;3.53;;;;;;;-0.78;73.69;96762.56;6131261;23;20022;-89
2023/11/27 02:53:24;;;;;;;6.55;3.88;;;;;;;-1.24;74.12;96633.00;6108909;23;20361;-88
2023/11/27 02:55:51;;;;;;;6.63;3.95;;;;;;;-0.85;73.69;96697.84;6073004;23;20019;-91
2023/11/27 02:58:17;;;;;;;10.00;5.20;;;;;;;-0.90;74.16;96693.34;6128115;22;20038;-91
2023/11/27 03:00:45;;;;;;;16.85;5.40;;;;;;;-0.58;73.91;96743.31;6205953;22;20424;-88
2023/11/27 03:03:11;;;;;;;7.13;3.65;;;;;;;-0.57;74.21;96736.06;6206330;22;20042;-88
2023/11/27 03:05:50;;;;;;;10.98;4.95;;;;;;;-0.18;73.95;96742.66;6257152;22;20019;-90
2023/11/27 03:08:16;;;;;;;10.25;5.10;;;;;;;-0.34;74.62;96700.09;6208810;22;20019;-92
2023/11/27 03:11:36;;;;;;;6.32;3.75;;;;;;;-0.01;74.13;96716.69;6285849;22;20026;-92
2023/11/27 03:14:27;;;;;;;3.05;2.15;;;;;;;0.22;74.38;96705.91;6203899;22;20052;-90
2023/11/27 03:17:57;;;;;;;6.65;3.72;;;;;;;0.21;74.90;96670.19;6181801;23;20018;-90
2023/11/27 03:20:23;;;;;;;6.10;3.47;;;;;;;-0.35;74.89;96574.28;6234584;23;20058;-90
2023/11/27 03:22:49;;;;;;;7.57;3.50;;;;;;;0.13;74.92;96619.13;6208879;23;20024;-91
2023/11/27 03:26:22;;;;;;;6.15;2.90;;;;;;;0.25;74.40;96623.91;6206006;23;20019;-92
2023/11/27 03:29:13;;;;;;;8.13;3.22;;;;;;;0.43;74.55;96655.09;6206848;23;20042;-92
2023/11/27 03:32:10;;;;;;;2.75;1.77;;;;;;;0.16;75.30;96712.50;6242119;23;20016;-93
2023/11/27 03:35:47;;;;;;;4.28;2.42;;;;;;;0.43;75.88;96800.19;6254729;23;20034;-91
2023/11/27 03:38:13;;;;;;;4.95;2.80;;;;;;;0.19;74.90;96733.38;6186284;23;20070;-90
2023/11/27 03:40:39;;;;;;;3.72;2.35;;;;;;;0.58;74.56;96758.69;6188689;23;20020;-91
2023/11/27 03:43:06;;;;;;;3.67;2.20;;;;;;;0.09;74.47;96710.28;6212289;23;20020;-91
2023/11/27 03:45:50;;;;;;;2.20;1.52;;;;;;;0.33;74.82;96701.03;6189012;23;20019;-90
2023/11/27 03:48:41;;;;;;;5.70;2.70;;;;;;;0.50;75.23;96725.31;6189075;23;20031;-91
2023/11/27 03:51:13;;;;;;;5.78;2.78;;;;;;;0.06;76.34;96656.38;6189677;23;20016;-90
2023/11/27 03:53:40;;;;;;;14.43;3.38;;;;;;;0.35;76.48;96659.34;6213884;23;20016;-89
2023/11/27 03:56:23;;;;;;;;;;;;;;;0.70;76.18;96680.94;6213744;23;20019;-92
2023/11/27 03:59:18;;;;;;;5.38;2.80;;;;;;;0.83;76.06;96668.44;6213270;23;19902;-92
2023/11/27 04:02:17;;;;;;;7.63;3.45;;;;;;;0.65;75.47;96625.41;6266956;23;20016;-92
2023/11/27 04:08:51;;;;;;;7.15;3.50;;;;;;;1.22;75.45;96729.41;6216562;23;20023;-90
2023/11/27 04:12:23;;;;;;;11.30;3.83;;;;;;;1.14;74.80;96705.97;6213826;23;20026;-93
2023/11/27 04:18:03;;;;;;;9.77;3.20;;;;;;;1.64;74.24;96687.44;6299922;22;20023;-91
2023/11/27 04:24:38;;;;;;;4.88;2.03;;;;;;;1.55;74.74;96675.88;6260984;22;20002;-91
2023/11/27 04:27:31;;;;;;;4.50;2.80;;;;;;;1.40;74.41;96627.94;6174683;23;20049;-92
2023/11/27 04:30:12;;;;;;;11.03;4.20;;;;;;;1.31;74.70;96573.34;6152667;23;20048;-92
2023/11/27 04:32:45;;;;;;;9.57;3.75;;;;;;;1.73;73.72;96616.63;6130385;23;20269;-90
2023/11/27 04:35:25;;;;;;;10.98;4.13;;;;;;;1.75;72.77;96572.09;6106464;23;20189;-92
2023/11/27 04:44:03;;;;;;;9.60;3.55;;;;;;;1.80;71.77;96536.13;6267940;22;20024;-94
2023/11/27 04:47:00;;;;;;;6.75;4.10;;;;;;;2.46;72.04;96635.34;6263679;22;20019;-90
2023/11/27 04:49:51;;;;;;;8.10;4.13;;;;;;;2.31;72.96;96617.81;6250715;22;20081;-90
2023/11/27 04:52:24;;;;;;;4.47;2.72;;;;;;;2.14;72.39;96629.47;6118051;23;20026;-87
2023/11/27 04:54:50;;;;;;;4.63;2.75;;;;;;;2.00;73.11;96605.44;6070730;23;20072;-88
2023/11/27 04:57:21;;;;;;;15.55;4.05;;;;;;;2.35;72.82;96630.31;6115149;23;20511;-88
2023/11/27 04:59:49;;;;;;;8.73;4.30;;;;;;;2.19;73.11;96598.88;6147678;23;20018;-88
2023/11/27 05:02:33;;;;;;;8.70;3.40;;;;;;;2.35;72.87;96619.53;6116562;23;20112;-87
2023/11/27 05:04:59;;;;;;;7.10;3.50;;;;;;;2.63;73.44;96635.22;6135014;23;20091;-89
2023/11/27 05:07:27;;;;;;;10.85;3.70;;;;;;;2.66;72.94;96606.84;6086545;23;20022;-88
2023/11/27 05:10:11;;;;;;;13.77;3.67;;;;;;;2.33;73.28;96585.94;6113102;23;20022;-89
2023/11/27 05:12:37;;;;;;;20.73;5.20;;;;;;;2.41;74.22;96605.88;6131098;23;20036;-87
2023/11/27 05:15:15;;;;;;;13.02;3.85;;;;;;;2.58;74.01;96581.47;6134667;23;20397;-88
2023/11/27 05:17:41;;;;;;;13.73;4.22;;;;;;;2.86;72.93;96592.56;6115968;23;20032;-89
2023/11/27 05:20:57;;;;;;;9.73;4.53;;;;;;;3.02;73.57;96617.03;6139371;23;20013;-90
2023/11/27 05:23:24;;;;;;;16.15;4.50;;;;;;;2.43;73.54;96545.13;6141694;23;20021;-89
2023/11/27 05:26:43;;;;;;;19.67;4.45;;;;;;;2.27;74.35;96525.25;6112849;23;20014;-89
2023/11/27 05:29:11;;;;;;;7.88;3.67;;;;;;;2.63;73.81;96570.50;6117419;23;20598;-87
2023/11/27 05:32:25;;;;;;;6.28;2.65;;;;;;;2.25;75.14;96554.41;6102461;23;20069;-87
2023/11/27 05:34:51;;;;;;;10.18;3.15;;;;;;;2.53;76.17;96573.59;6103597;23;20045;-87
2023/11/27 05:37:20;;;;;;;9.75;3.05;;;;;;;2.36;77.41;96569.13;6091875;23;19999;-91
2023/11/27 05:43:22;;;;;;;7.15;1.33;;;;;;;2.66;76.72;96602.22;6114287;23;20026;-91
2023/11/27 05:52:42;;;;;;;6.88;3.08;;;;;;;2.61;78.11;96567.34;6136319;23;20579;-89
2023/11/27 05:55:42;;;;;;;6.05;2.17;;;;;;;2.53;78.35;96550.13;6041853;23;20422;-87
2023/11/27 05:58:41;;;;;;;3.07;2.13;;;;;;;2.25;78.35;96495.94;6029510;23;20023;-88
2023/11/27 06:01:16;;;;;;;4.43;2.20;;;;;;;2.74;77.82;96535.84;6043788;23;20264;-87
2023/11/27 06:04:00;;;;;;;2.75;1.90;;;;;;;2.68;78.27;96539.84;6082946;23;20078;-89
2023/11/27 06:06:29;;;;;;;6.63;2.38;;;;;;;2.67;78.38;96544.47;6035577;23;20022;-92
2023/11/27 06:08:56;;;;;;;4.60;2.30;;;;;;;2.90;78.66;96579.97;6035849;23;20025;-88
2023/11/27 06:11:53;;;;;;;2.75;2.17;;;;;;;2.92;79.29;96587.75;6116215;23;20021;-89
2023/11/27 06:14:20;;;;;;;3.10;2.05;;;;;;;2.51;78.98;96520.00;6285604;22;20016;-89
2023/11/27 06:17:15;;;;;;;2.20;1.67;;;;;;;2.92;79.33;96575.06;6239426;22;20075;-89
2023/11/27 06:19:42;;;;;;;2.78;1.98;;;;;;;2.42;79.31;96495.03;6240397;22;20022;-88
2023/11/27 06:22:12;;;;;;;2.42;1.50;;;;;;;2.93;79.62;96576.63;6266714;22;20041;-89
2023/11/27 06:24:39;;;;;;;6.03;1.98;;;;;;;2.67;79.52;96530.19;6238879;22;20472;-86
2023/11/27 06:27:33;;;;;;;4.15;2.33;;;;;;;3.14;79.66;96587.38;6170416;23;20013;-91
2023/11/27 06:33:04;;;;;;;2.72;1.85;;;;;;;2.62;79.83;96500.75;6266359;22;20028;-94
2023/11/27 06:35:32;;;;;;;3.30;1.73;;;;;;;2.62;79.49;96498.06;6213696;23;20022;-94
2023/11/27 06:38:03;;;;;;;4.05;2.20;;;;;;;3.22;79.58;96572.25;6266456;23;20019;-91
2023/11/27 06:41:35;;;;;;;4.30;1.85;;;;;;;3.30;79.40;96588.34;6238305;23;20039;-95
2023/11/27 06:44:02;;;;;;;2.75;1.75;;;;;;;3.03;78.66;96497.97;6192863;23;20020;-94
2023/11/27 06:46:41;;;;;;;2.72;1.88;;;;;;;3.26;78.42;96521.88;6213802;23;20016;-89
2023/11/27 06:49:18;;;;;;;3.50;2.00;;;;;;;3.40;78.57;96535.06;6215021;23;20016;-92
2023/11/27 06:51:45;;;;;;;2.75;1.83;;;;;;;3.19;78.79;96511.63;6208109;23;20020;-91
2023/11/27 06:54:14;;;;;;;2.60;2.00;;;;;;;3.11;79.01;96503.59;6189901;23;20016;-92
2023/11/27 06:56:42;;;;;;;3.58;2.10;;;;;;;3.18;79.39;96526.25;6167670;23;20031;-93
2023/11/27 07:00:05;;;;;;;2.97;2.10;;;;;;;3.37;79.06;96543.84;6284348;22;20050;-94
2023/11/27 07:02:37;;;;;;;3.53;2.30;;;;;;;3.52;78.63;96545.91;6162102;23;20465;-95
2023/11/27 07:05:33;;;;;;;2.92;2.13;;;;;;;3.52;78.38;96527.78;6241394;22;20016;-95
2023/11/27 07:11:30;;;;;;;3.47;2.20;;;;;;;3.43;78.27;96523.59;6298832;22;20015;-94
2023/11/27 08:20:28;;;;;;;14.30;6.40;;;;;;;3.51;78.59;96418.19;6298074;22;20032;-93
2023/11/27 08:36:32;;;;;;;15.10;6.70;;;;;;;4.18;78.87;96453.81;6268249;22;20094;-92
2023/11/27 09:44:18;;;;;;;22.33;11.75;;;;;;;4.60;77.85;96434.53;6268950;22;20047;-90
2023/11/27 09:53:05;;;;;;;39.17;13.45;;;;;;;5.17;77.42;96492.91;6273369;22;20020;-93
2023/11/27 10:24:01;;;;;;;26.98;12.40;;;;;;;5.01;78.50;96477.75;5610600;22;15991485;-93
2023/11/27 10:27:43;;;;;;;24.52;13.13;;;;;;;4.44;78.36;96366.88;6251883;22;20233;-91
2023/11/27 10:33:36;;;;;;;25.40;13.27;;;;;;;4.96;77.79;96427.34;5984575;23;20024;-91
2023/11/27 10:36:56;;;;;;;26.52;13.60;;;;;;;5.19;77.44;96441.09;5986628;23;20024;-90
2023/11/27 10:40:13;;;;;;;22.90;12.75;;;;;;;5.12;77.60;96430.09;6016066;23;20414;-89
2023/11/27 10:42:47;;;;;;;26.75;14.55;;;;;;;4.71;77.60;96381.50;6031854;23;20024;-91
2023/11/27 10:46:29;;;;;;;21.60;13.13;;;;;;;4.61;77.36;96351.47;6030506;23;20034;-93
2023/11/27 10:49:14;;;;;;;24.75;14.13;;;;;;;5.19;77.56;96432.97;6009636;23;20019;-91
2023/11/27 10:51:58;;;;;;;22.98;14.73;;;;;;;5.14;77.37;96422.41;5990186;23;20024;-92
2023/11/27 10:54:49;;;;;;;31.38;15.13;;;;;;;5.12;77.40;96428.16;5992674;23;20027;-90
2023/11/27 10:58:10;;;;;;;27.98;14.23;;;;;;;5.07;77.41;96424.94;6148388;23;20027;-91
2023/11/27 11:00:46;;;;;;;28.35;14.13;;;;;;;4.88;77.68;96399.31;6151425;23;20001;-92
2023/11/27 11:03:32;;;;;;;25.90;12.90;;;;;;;4.56;77.65;96363.28;6150808;23;20052;-91
2023/11/27 11:06:03;;;;;;;29.35;14.30;;;;;;;4.78;77.54;96382.81;6080027;23;20025;-93
2023/11/27 11:08:37;;;;;;;21.85;11.77;;;;;;;4.79;77.48;96404.09;6175575;23;20002;-90
2023/11/27 11:11:36;;;;;;;27.02;12.90;;;;;;;5.08;77.12;96448.16;6125054;23;20061;-90
2023/11/27 11:14:07;;;;;;;21.10;12.25;;;;;;;4.83;76.86;96383.31;6070352;23;20456;-89
2023/11/27 11:17:11;;;;;;;27.25;13.57;;;;;;;5.31;76.50;96424.78;6094606;23;20017;-93
2023/11/27 11:19:59;;;;;;;21.88;11.75;;;;;;;5.31;75.92;96421.28;6100444;23;20082;-91
2023/11/27 11:22:53;;;;;;;22.20;10.77;;;;;;;5.23;75.56;96425.75;6118537;23;20024;-89
2023/11/27 11:25:35;;;;;;;23.80;11.68;;;;;;;5.30;75.75;96423.22;6119478;23;20018;-91
2023/11/27 11:28:33;;;;;;;19.60;9.43;;;;;;;5.33;74.93;96417.09;6119033;23;20028;-90
2023/11/27 11:31:15;;;;;;;15.95;9.35;;;;;;;5.31;74.66;96405.03;6140752;23;20101;-90
2023/11/27 11:33:50;;;;;;;15.82;7.35;;;;;;;5.36;75.04;96421.81;6095248;23;20053;-89
2023/11/27 11:36:35;;;;;;;14.88;7.45;;;;;;;5.36;74.17;96413.69;6074388;23;20021;-92
2023/11/27 11:39:07;;;;;;;14.43;7.20;;;;;;;5.46;73.99;96427.81;6066220;23;20074;-90
2023/11/27 11:41:36;;;;;;;11.80;7.05;;;;;;;5.47;73.71;96426.72;6116415;23;20022;-90
2023/11/27 11:44:18;;;;;;;10.95;6.22;;;;;;;5.22;73.44;96401.72;6115568;23;20128;-92
2023/11/27 11:47:37;;;;;;;13.88;6.82;;;;;;;5.49;73.04;96438.75;6047097;23;20025;-91
2023/11/27 11:50:40;;;;;;;18.20;6.50;;;;;;;5.58;72.83;96441.28;6269372;23;20004;-90
2023/11/27 11:53:32;;;;;;;18.75;6.10;;;;;;;5.49;72.83;96438.75;6192843;22;20016;-92
2023/11/27 11:59:25;;;;;;;14.25;5.72;;;;;;;5.32;72.76;96418.22;6169706;23;20049;-92
2023/11/27 12:01:52;;;;;;;10.52;5.30;;;;;;;5.30;72.53;96398.06;6188264;23;20024;-92
2023/11/27 12:04:42;;;;;;;9.13;5.30;;;;;;;5.50;72.41;96431.41;6161120;23;20031;-89
2023/11/27 12:07:37;;;;;;;8.45;4.68;;;;;;;5.48;72.00;96429.03;6200608;22;20086;-91
2023/11/27 12:10:31;;;;;;;7.53;4.78;;;;;;;5.19;71.70;96390.44;6256663;22;20023;-92
2023/11/27 12:12:59;;;;;;;;;;;;;;;5.59;71.58;96445.56;6226228;22;20050;-89
2023/11/27 12:15:34;;;;;;;9.93;4.13;;;;;;;5.23;71.21;96397.84;6248591;22;19926;-90
2023/11/27 12:18:01;;;;;;;13.10;5.05;;;;;;;5.50;71.10;96423.28;6223904;22;20015;-91
2023/11/27 12:20:48;;;;;;;10.05;4.60;;;;;;;5.54;70.97;96437.72;6222042;22;20083;-92
2023/11/27 12:23:17;;;;;;;15.02;3.88;;;;;;;5.42;70.71;96425.81;6249069;22;20030;-91
2023/11/27 12:25:59;;;;;;;11.90;4.53;;;;;;;5.45;70.78;96418.13;6221464;22;20095;-90
2023/11/27 12:28:27;;;;;;;23.15;4.13;;;;;;;5.44;70.53;96430.09;6249537;22;20034;-91
2023/11/27 12:30:58;;;;;;;18.67;4.50;;;;;;;5.18;71.20;96409.75;6225774;22;20019;-91
2023/11/27 12:34:18;;;;;;;10.60;4.13;;;;;;;5.46;70.73;96463.03;6280972;22;20031;-92
2023/11/27 12:37:12;;;;;;;8.98;4.25;;;;;;;5.32;70.62;96439.88;6274603;22;20015;-93
2023/11/27 12:39:48;;;;;;;15.45;4.68;;;;;;;4.87;70.55;96372.63;6272752;22;20015;-90
2023/11/27 12:47:59;;;;;;;15.45;4.10;;;;;;;5.33;70.34;96449.59;6296458;22;20039;-93
2023/11/27 12:53:51;;;;;;;14.35;4.30;;;;;;;5.18;70.04;96439.53;6228150;22;20055;-92
2023/11/27 12:56:24;;;;;;;13.75;4.50;;;;;;;5.36;69.66;96461.63;6246235;22;20029;-92
2023/11/27 12:59:46;;;;;;;7.53;3.85;;;;;;;4.69;69.75;96356.69;6240900;22;20004;-91
2023/11/27 13:02:26;;;;;;;7.50;3.85;;;;;;;4.80;69.81;96370.50;6202817;22;20103;-92
2023/11/27 13:05:43;;;;;;;11.98;3.97;;;;;;;5.25;69.88;96439.69;6164188;23;20028;-93
2023/11/27 13:08:36;;;;;;;11.23;4.07;;;;;;;4.65;69.48;96333.41;6189750;23;20426;-92
2023/11/27 13:11:06;;;;;;;7.68;4.15;;;;;;;4.85;69.54;96362.13;6135617;23;20017;-92
2023/11/27 13:14:07;;;;;;;10.45;3.35;;;;;;;4.59;69.44;96332.84;6132751;23;20027;-93
2023/11/27 13:16:35;;;;;;;7.90;2.97;;;;;;;4.79;69.63;96370.84;6181105;23;20021;-93
2023/11/27 13:19:29;;;;;;;13.70;3.40;;;;;;;5.16;69.18;96420.91;6186036;23;20052;-91
2023/11/27 13:21:55;;;;;;;11.50;3.72;;;;;;;5.15;69.47;96407.72;6157709;23;20430;-92
2023/11/27 13:24:29;;;;;;;8.18;3.17;;;;;;;5.25;68.61;96395.59;6132419;23;20021;-93
2023/11/27 13:27:24;;;;;;;6.53;3.17;;;;;;;5.04;68.75;96360.66;6173641;23;20021;-92
2023/11/27 13:30:59;;;;;;;9.05;3.10;;;;;;;5.37;68.37;96406.34;6184921;23;19996;-89
2023/11/27 13:34:55;;;;;;;7.38;2.65;;;;;;;4.78;68.19;96336.81;6184586;23;20017;-90
2023/11/27 13:38:00;;;;;;;6.85;2.80;;;;;;;4.87;68.24;96346.34;6166746;23;20603;-91
2023/11/27 13:40:59;;;;;;;7.93;2.83;;;;;;;5.19;68.17;96392.34;6182219;23;19993;-90
2023/11/27 13:44:17;;;;;;;12.13;3.03;;;;;;;4.77;67.76;96346.84;6221763;23;20066;-91
2023/11/27 13:49:55;;;;;;;7.53;2.88;;;;;;;4.99;68.85;96426.66;6215344;23;19927;-90
2023/11/27 13:52:29;;;;;;;6.97;2.80;;;;;;;4.57;68.45;96340.53;6204958;23;20020;-91
2023/11/27 13:55:00;;;;;;;10.45;2.72;;;;;;;4.92;67.72;96394.78;6192480;23;20371;-91
2023/11/27 14:00:34;;;;;;;6.03;2.65;;;;;;;4.89;67.42;96403.59;6242054;23;20020;-90
2023/11/27 14:03:32;;;;;;;4.47;2.90;;;;;;;4.80;67.57;96402.19;6228071;23;20034;-91
2023/11/27 14:06:25;;;;;;;8.30;3.35;;;;;;;4.64;67.27;96375.13;6214425;23;20019;-89
2023/11/27 14:09:03;;;;;;;13.55;3.42;;;;;;;4.84;67.17;96403.88;6240605;23;20039;-89
2023/11/27 14:11:32;;;;;;;9.17;3.40;;;;;;;4.74;67.05;96385.44;6192714;23;20039;-90
2023/11/27 14:14:32;;;;;;;4.95;2.45;;;;;;;4.46;66.83;96336.75;6211452;23;20251;-90
2023/11/27 14:26:34;;;;;;;10.25;3.53;;;;;;;4.55;69.60;96374.47;6291451;22;20035;-92
2023/11/27 14:29:18;;;;;;;9.70;5.05;;;;;;;4.79;70.03;96414.94;6215381;22;20091;-90
2023/11/27 14:31:46;;;;;;;13.80;4.38;;;;;;;4.83;70.33;96440.16;6236860;22;20518;-90
2023/11/27 14:34:20;;;;;;;10.27;4.25;;;;;;;4.59;70.96;96405.09;6295807;22;20022;-90
2023/11/27 14:36:59;;;;;;;8.52;4.97;;;;;;;4.74;70.55;96442.25;6245114;22;20019;-91
2023/11/27 14:39:32;;;;;;;12.52;3.78;;;;;;;4.22;70.01;96397.91;6269997;22;20090;-89
2023/11/27 14:42:00;;;;;;;6.93;3.10;;;;;;;4.39;69.41;96415.78;6239977;22;20023;-89
2023/11/27 14:44:27;;;;;;;;;;;;;;;4.61;69.52;96441.50;6242116;22;20046;-89
2023/11/27 14:47:21;;;;;;;5.88;2.60;;;;;;;4.34;69.21;96407.09;6296357;22;19916;-88
2023/11/27 14:49:53;;;;;;;5.45;2.13;;;;;;;3.88;69.38;96356.03;6269017;22;20074;-90
2023/11/27 14:52:20;;;;;;;3.45;2.20;;;;;;;4.19;68.94;96406.72;6265530;22;20045;-88
2023/11/27 14:54:47;;;;;;;4.40;2.53;;;;;;;4.21;69.49;96393.66;6244023;22;20026;-90
2023/11/27 14:57:13;;;;;;;3.90;2.57;;;;;;;4.32;68.92;96407.47;6269204;22;20037;-88
2023/11/27 15:00:19;;;;;;;3.55;2.30;;;;;;;4.41;68.64;96421.63;6273561;22;20035;-91
2023/11/27 15:02:50;;;;;;;3.58;2.00;;;;;;;4.42;68.32;96425.91;6248142;22;20475;-89
2023/11/27 15:05:17;;;;;;;3.65;2.40;;;;;;;4.30;68.09;96412.41;6196914;22;20039;-89
2023/11/27 15:07:44;;;;;;;6.97;2.40;;;;;;;4.17;67.91;96413.59;6266836;22;20018;-88
2023/11/27 15:10:11;;;;;;;3.42;2.40;;;;;;;3.88;68.41;96369.53;6245172;22;20049;-89
2023/11/27 15:12:42;;;;;;;7.78;2.40;;;;;;;4.10;67.90;96405.28;6247333;22;20024;-89
2023/11/27 15:15:17;;;;;;;3.78;2.40;;;;;;;3.74;67.39;96366.38;6247008;22;20023;-90
2023/11/27 15:18:09;;;;;;;4.25;2.70;;;;;;;4.15;67.38;96399.63;6300000;22;20015;-91
2023/11/27 15:20:53;;;;;;;3.85;2.58;;;;;;;4.21;67.13;96417.19;6273053;22;20011;-87
2023/11/27 15:23:25;;;;;;;4.95;2.78;;;;;;;4.14;66.49;96403.44;6245740;22;20034;-91
2023/11/27 15:26:04;;;;;;;6.82;2.70;;;;;;;4.09;66.21;96404.50;6243377;22;20042;-88
2023/11/27 15:28:47;;;;;;;7.10;2.30;;;;;;;4.06;66.24;96407.09;6295999;22;20024;-92
2023/11/27 15:37:25;;;;;;;4.88;2.40;;;;;;;3.57;65.79;96361.25;6285543;22;20031;-89
2023/11/27 15:39:57;;;;;;;6.03;2.33;;;;;;;3.97;66.08;96424.25;6219840;22;20014;-88
2023/11/27 15:42:27;;;;;;;4.57;2.38;;;;;;;3.86;65.43;96425.03;6240129;22;20015;-86
2023/11/27 15:44:54;;;;;;;3.53;2.53;;;;;;;3.99;66.02;96449.00;6189814;22;20024;-86
2023/11/27 15:47:23;;;;;;;2.72;2.00;;;;;;;3.61;65.57;96389.94;6266342;22;20016;-86
2023/11/27 15:50:13;;;;;;;4.25;2.60;;;;;;;4.27;65.68;96461.75;6219635;22;20076;-85
2023/11/27 15:52:46;;;;;;;2.88;2.28;;;;;;;4.26;65.28;96468.31;6264906;22;20023;-86
2023/11/27 15:55:14;;;;;;;4.10;2.67;;;;;;;4.13;65.22;96462.13;6268212;22;20076;-88
2023/11/27 15:58:05;;;;;;;3.83;2.58;;;;;;;4.30;64.65;96469.19;6218667;22;20019;-87
2023/11/27 16:00:32;;;;;;;6.53;3.05;;;;;;;4.07;64.82;96435.69;6269384;22;20023;-87
2023/11/27 16:03:07;;;;;;;9.90;5.75;;;;;;;4.39;64.46;96459.03;6293469;22;20118;-88
2023/11/27 16:05:35;;;;;;;5.57;3.33;;;;;;;4.34;64.23;96453.88;6295742;22;20010;-88
2023/11/27 16:08:05;;;;;;;7.10;4.05;;;;;;;4.15;64.39;96416.63;6268143;22;20107;-85
2023/11/27 16:10:36;;;;;;;9.77;3.85;;;;;;;4.39;64.08;96432.00;6245179;22;20126;-87
2023/11/27 16:13:30;;;;;;;7.68;3.58;;;;;;;4.53;64.13;96455.94;6269542;22;20015;-87
2023/11/27 16:15:58;;;;;;;9.65;5.07;;;;;;;4.03;64.39;96413.97;6219166;22;20028;-87
2023/11/27 16:18:29;;;;;;;5.60;3.60;;;;;;;3.80;64.45;96377.75;6194721;22;20602;-87
2023/11/27 16:20:58;;;;;;;4.43;3.08;;;;;;;3.96;64.23;96397.53;6263576;22;20007;-89
2023/11/27 16:23:29;;;;;;;6.75;3.33;;;;;;;4.12;63.84;96401.09;6270860;22;20022;-87
2023/11/27 16:25:55;;;;;;;7.32;3.30;;;;;;;4.38;63.31;96437.75;6291128;22;20020;-87
2023/11/27 16:28:23;;;;;;;3.88;2.78;;;;;;;4.00;64.14;96401.91;6234375;22;20012;-86
2023/11/27 16:30:51;;;;;;;5.53;3.37;;;;;;;3.93;63.89;96390.13;6287130;22;20020;-86
2023/11/27 16:33:21;;;;;;;5.05;3.20;;;;;;;3.84;64.25;96375.94;6264044;22;20103;-89
2023/11/27 16:35:48;;;;;;;4.15;2.88;;;;;;;3.88;64.32;96396.56;6285490;22;20107;-89
2023/11/27 16:38:20;;;;;;;5.68;2.90;;;;;;;4.17;64.49;96451.44;6233074;23;20020;-85
2023/11/27 16:40:48;;;;;;;3.97;3.00;;;;;;;4.26;64.49;96449.38;6259036;23;20107;-83
2023/11/27 16:43:15;;;;;;;4.25;3.10;;;;;;;4.26;63.87;96454.78;6256059;23;20020;-88
2023/11/27 16:45:42;;;;;;;5.20;3.30;;;;;;;4.22;64.02;96434.97;6254465;23;20458;-84
2023/11/27 16:48:11;;;;;;;4.93;3.00;;;;;;;4.06;63.47;96407.09;6252063;23;20036;-86
2023/11/27 16:50:41;;;;;;;4.70;3.40;;;;;;;4.03;63.66;96419.38;6253906;23;20063;-85